sensor_id;sensor_type;location;lat;lon;timestamp;P1;durP1;ratioP1;P2;durP2;ratioP2
19257;SDS011;9763;48.780;9.212;2023-04-25T00:02:41;1.20;;;0.90;;
19257;SDS011;9763;48.780;9.212;2023-04-25T00:06:05;1.30;;;1.07;;
19257;SDS011;9763;48.780;9.212;2023-04-25T00:09:30;1.20;;;0.80;;
19257;SDS011;9763;48.780;9.212;2023-04-25T00:12:55;1.30;;;0.90;;
19257;SDS011;9763;48.780;9.212;2023-04-25T00:16:20;1.33;;;0.90;;
19257;SDS011;9763;48.780;9.212;2023-04-25T00:19:45;1.30;;;0.90;;
19257;SDS011;9763;48.780;9.212;2023-04-25T00:23:09;1.93;;;0.80;;
19257;SDS011;9763;48.780;9.212;2023-04-25T00:26:33;2.23;;;1.00;;
19257;SDS011;9763;48.780;9.212;2023-04-25T00:29:59;1.40;;;0.90;;
19257;SDS011;9763;48.780;9.212;2023-04-25T00:33:22;1.90;;;0.73;;
19257;SDS011;9763;48.780;9.212;2023-04-25T00:36:46;1.10;;;0.70;;
19257;SDS011;9763;48.780;9.212;2023-04-25T00:40:10;1.40;;;0.80;;
19257;SDS011;9763;48.780;9.212;2023-04-25T00:43:34;1.20;;;0.90;;
19257;SDS011;9763;48.780;9.212;2023-04-25T00:47:01;1.27;;;0.90;;
19257;SDS011;9763;48.780;9.212;2023-04-25T00:50:25;1.20;;;0.90;;
19257;SDS011;9763;48.780;9.212;2023-04-25T00:53:49;1.60;;;0.93;;
19257;SDS011;9763;48.780;9.212;2023-04-25T00:57:13;1.97;;;0.77;;
19257;SDS011;9763;48.780;9.212;2023-04-25T01:00:38;1.30;;;0.80;;
19257;SDS011;9763;48.780;9.212;2023-04-25T01:04:04;1.30;;;0.97;;
19257;SDS011;9763;48.780;9.212;2023-04-25T01:07:29;1.23;;;0.90;;
19257;SDS011;9763;48.780;9.212;2023-04-25T01:10:53;1.30;;;1.10;;
19257;SDS011;9763;48.780;9.212;2023-04-25T01:14:17;1.27;;;0.93;;
19257;SDS011;9763;48.780;9.212;2023-04-25T01:17:41;1.33;;;0.80;;
19257;SDS011;9763;48.780;9.212;2023-04-25T01:21:08;1.20;;;1.00;;
19257;SDS011;9763;48.780;9.212;2023-04-25T01:24:33;1.20;;;0.90;;
19257;SDS011;9763;48.780;9.212;2023-04-25T01:27:57;1.50;;;1.20;;
19257;SDS011;9763;48.780;9.212;2023-04-25T01:31:22;1.50;;;1.10;;
19257;SDS011;9763;48.780;9.212;2023-04-25T01:34:46;2.10;;;1.20;;
19257;SDS011;9763;48.780;9.212;2023-04-25T01:38:11;1.30;;;1.03;;
19257;SDS011;9763;48.780;9.212;2023-04-25T01:41:35;1.40;;;1.00;;
19257;SDS011;9763;48.780;9.212;2023-04-25T01:44:59;1.30;;;0.80;;
19257;SDS011;9763;48.780;9.212;2023-04-25T01:48:23;2.80;;;1.20;;
19257;SDS011;9763;48.780;9.212;2023-04-25T01:51:47;1.13;;;0.80;;
19257;SDS011;9763;48.780;9.212;2023-04-25T01:55:13;1.30;;;0.90;;
19257;SDS011;9763;48.780;9.212;2023-04-25T01:58:47;1.77;;;0.87;;
19257;SDS011;9763;48.780;9.212;2023-04-25T02:02:14;1.30;;;1.00;;
19257;SDS011;9763;48.780;9.212;2023-04-25T02:05:38;1.60;;;0.90;;
19257;SDS011;9763;48.780;9.212;2023-04-25T02:09:06;1.23;;;0.90;;
19257;SDS011;9763;48.780;9.212;2023-04-25T02:12:36;1.30;;;0.87;;
19257;SDS011;9763;48.780;9.212;2023-04-25T02:16:13;1.40;;;1.10;;
19257;SDS011;9763;48.780;9.212;2023-04-25T02:19:37;2.57;;;1.10;;
19257;SDS011;9763;48.780;9.212;2023-04-25T02:23:01;1.67;;;0.93;;
19257;SDS011;9763;48.780;9.212;2023-04-25T02:26:25;1.50;;;1.00;;
19257;SDS011;9763;48.780;9.212;2023-04-25T02:29:51;1.67;;;1.10;;
19257;SDS011;9763;48.780;9.212;2023-04-25T02:33:15;1.47;;;1.10;;
19257;SDS011;9763;48.780;9.212;2023-04-25T02:36:39;1.30;;;1.00;;
19257;SDS011;9763;48.780;9.212;2023-04-25T02:40:03;1.60;;;1.20;;
19257;SDS011;9763;48.780;9.212;2023-04-25T02:43:28;1.40;;;1.00;;
19257;SDS011;9763;48.780;9.212;2023-04-25T02:46:53;1.67;;;1.30;;
19257;SDS011;9763;48.780;9.212;2023-04-25T02:50:18;1.30;;;0.97;;
19257;SDS011;9763;48.780;9.212;2023-04-25T02:53:41;1.23;;;0.90;;
19257;SDS011;9763;48.780;9.212;2023-04-25T02:57:05;1.90;;;1.00;;
19257;SDS011;9763;48.780;9.212;2023-04-25T03:00:31;1.40;;;0.90;;
19257;SDS011;9763;48.780;9.212;2023-04-25T03:03:56;1.63;;;1.10;;
19257;SDS011;9763;48.780;9.212;2023-04-25T03:07:20;1.20;;;0.97;;
19257;SDS011;9763;48.780;9.212;2023-04-25T03:10:44;1.30;;;0.87;;
19257;SDS011;9763;48.780;9.212;2023-04-25T03:14:09;1.50;;;1.20;;
19257;SDS011;9763;48.780;9.212;2023-04-25T03:17:33;1.47;;;1.10;;
19257;SDS011;9763;48.780;9.212;2023-04-25T03:20:59;1.40;;;1.20;;
19257;SDS011;9763;48.780;9.212;2023-04-25T03:24:25;1.33;;;0.97;;
19257;SDS011;9763;48.780;9.212;2023-04-25T03:27:49;1.50;;;1.00;;
19257;SDS011;9763;48.780;9.212;2023-04-25T03:31:13;1.37;;;1.07;;
19257;SDS011;9763;48.780;9.212;2023-04-25T03:34:37;1.60;;;1.00;;
19257;SDS011;9763;48.780;9.212;2023-04-25T03:38:03;1.30;;;1.00;;
19257;SDS011;9763;48.780;9.212;2023-04-25T03:41:33;1.40;;;1.20;;
19257;SDS011;9763;48.780;9.212;2023-04-25T03:45:02;1.30;;;1.00;;
19257;SDS011;9763;48.780;9.212;2023-04-25T03:48:26;1.30;;;1.00;;
19257;SDS011;9763;48.780;9.212;2023-04-25T03:51:50;1.30;;;1.00;;
19257;SDS011;9763;48.780;9.212;2023-04-25T03:55:16;1.80;;;0.90;;
19257;SDS011;9763;48.780;9.212;2023-04-25T03:58:39;1.30;;;0.90;;
19257;SDS011;9763;48.780;9.212;2023-04-25T04:02:04;1.90;;;0.90;;
19257;SDS011;9763;48.780;9.212;2023-04-25T04:05:29;1.60;;;1.03;;
19257;SDS011;9763;48.780;9.212;2023-04-25T04:08:54;1.30;;;1.00;;
19257;SDS011;9763;48.780;9.212;2023-04-25T04:12:20;1.20;;;0.93;;
19257;SDS011;9763;48.780;9.212;2023-04-25T04:15:44;2.07;;;1.07;;
19257;SDS011;9763;48.780;9.212;2023-04-25T04:19:08;1.50;;;0.90;;
19257;SDS011;9763;48.780;9.212;2023-04-25T04:22:35;1.80;;;1.20;;
19257;SDS011;9763;48.780;9.212;2023-04-25T04:26:03;1.27;;;0.90;;
19257;SDS011;9763;48.780;9.212;2023-04-25T04:29:50;1.20;;;0.90;;
19257;SDS011;9763;48.780;9.212;2023-04-25T04:33:25;1.50;;;1.10;;
19257;SDS011;9763;48.780;9.212;2023-04-25T04:36:53;1.80;;;1.20;;
19257;SDS011;9763;48.780;9.212;2023-04-25T04:40:17;2.53;;;1.37;;
19257;SDS011;9763;48.780;9.212;2023-04-25T04:43:56;2.10;;;1.33;;
19257;SDS011;9763;48.780;9.212;2023-04-25T04:47:39;1.40;;;1.10;;
19257;SDS011;9763;48.780;9.212;2023-04-25T04:51:09;1.67;;;1.27;;
19257;SDS011;9763;48.780;9.212;2023-04-25T04:54:48;1.50;;;1.30;;
19257;SDS011;9763;48.780;9.212;2023-04-25T04:58:24;1.70;;;1.40;;
19257;SDS011;9763;48.780;9.212;2023-04-25T05:02:02;1.40;;;1.30;;
19257;SDS011;9763;48.780;9.212;2023-04-25T05:05:52;1.40;;;1.10;;
19257;SDS011;9763;48.780;9.212;2023-04-25T05:09:44;2.73;;;1.53;;
19257;SDS011;9763;48.780;9.212;2023-04-25T05:13:40;1.77;;;1.40;;
19257;SDS011;9763;48.780;9.212;2023-04-25T05:17:33;1.83;;;1.20;;
19257;SDS011;9763;48.780;9.212;2023-04-25T05:21:13;1.50;;;1.20;;
19257;SDS011;9763;48.780;9.212;2023-04-25T05:24:56;2.37;;;1.40;;
19257;SDS011;9763;48.780;9.212;2023-04-25T05:28:41;1.90;;;1.40;;
19257;SDS011;9763;48.780;9.212;2023-04-25T05:32:22;1.97;;;1.77;;
19257;SDS011;9763;48.780;9.212;2023-04-25T05:35:48;3.07;;;1.67;;
19257;SDS011;9763;48.780;9.212;2023-04-25T05:39:14;3.00;;;2.13;;
19257;SDS011;9763;48.780;9.212;2023-04-25T05:43:02;8.33;;;1.83;;
19257;SDS011;9763;48.780;9.212;2023-04-25T05:46:44;2.07;;;1.90;;
19257;SDS011;9763;48.780;9.212;2023-04-25T05:50:09;2.33;;;1.90;;
19257;SDS011;9763;48.780;9.212;2023-04-25T05:53:56;2.63;;;2.00;;
19257;SDS011;9763;48.780;9.212;2023-04-25T05:57:23;1.87;;;1.77;;
19257;SDS011;9763;48.780;9.212;2023-04-25T06:00:50;2.10;;;1.70;;
19257;SDS011;9763;48.780;9.212;2023-04-25T06:04:14;1.97;;;1.70;;
19257;SDS011;9763;48.780;9.212;2023-04-25T06:07:38;1.80;;;1.57;;
19257;SDS011;9763;48.780;9.212;2023-04-25T06:11:02;1.60;;;1.40;;
19257;SDS011;9763;48.780;9.212;2023-04-25T06:14:27;2.37;;;1.20;;
19257;SDS011;9763;48.780;9.212;2023-04-25T06:17:52;1.53;;;1.20;;
19257;SDS011;9763;48.780;9.212;2023-04-25T06:21:16;1.73;;;1.40;;
19257;SDS011;9763;48.780;9.212;2023-04-25T06:24:41;1.30;;;1.00;;
19257;SDS011;9763;48.780;9.212;2023-04-25T06:28:06;1.50;;;1.30;;
19257;SDS011;9763;48.780;9.212;2023-04-25T06:31:32;1.40;;;1.20;;
19257;SDS011;9763;48.780;9.212;2023-04-25T06:34:56;2.63;;;1.40;;
19257;SDS011;9763;48.780;9.212;2023-04-25T06:38:20;1.73;;;1.37;;
19257;SDS011;9763;48.780;9.212;2023-04-25T06:41:46;1.50;;;1.20;;
19257;SDS011;9763;48.780;9.212;2023-04-25T06:45:30;1.50;;;1.40;;
19257;SDS011;9763;48.780;9.212;2023-04-25T06:48:55;1.60;;;1.10;;
19257;SDS011;9763;48.780;9.212;2023-04-25T06:52:20;1.97;;;1.77;;
19257;SDS011;9763;48.780;9.212;2023-04-25T06:55:46;1.40;;;1.20;;
19257;SDS011;9763;48.780;9.212;2023-04-25T06:59:15;4.03;;;1.37;;
19257;SDS011;9763;48.780;9.212;2023-04-25T07:02:40;1.60;;;1.30;;
19257;SDS011;9763;48.780;9.212;2023-04-25T07:06:06;2.90;;;1.30;;
19257;SDS011;9763;48.780;9.212;2023-04-25T07:09:31;2.03;;;1.53;;
19257;SDS011;9763;48.780;9.212;2023-04-25T07:12:55;1.90;;;1.33;;
19257;SDS011;9763;48.780;9.212;2023-04-25T07:16:19;2.00;;;1.60;;
19257;SDS011;9763;48.780;9.212;2023-04-25T07:19:43;2.00;;;1.50;;
19257;SDS011;9763;48.780;9.212;2023-04-25T07:23:08;2.40;;;1.60;;
19257;SDS011;9763;48.780;9.212;2023-04-25T07:26:33;1.70;;;1.30;;
19257;SDS011;9763;48.780;9.212;2023-04-25T07:30:15;1.43;;;1.33;;
19257;SDS011;9763;48.780;9.212;2023-04-25T07:33:39;3.40;;;1.90;;
19257;SDS011;9763;48.780;9.212;2023-04-25T07:37:03;1.97;;;1.77;;
19257;SDS011;9763;48.780;9.212;2023-04-25T07:40:37;2.03;;;1.83;;
19257;SDS011;9763;48.780;9.212;2023-04-25T07:44:03;2.03;;;1.83;;
19257;SDS011;9763;48.780;9.212;2023-04-25T07:47:29;4.37;;;1.70;;
19257;SDS011;9763;48.780;9.212;2023-04-25T07:50:53;2.43;;;1.50;;
19257;SDS011;9763;48.780;9.212;2023-04-25T07:54:17;2.37;;;2.03;;
19257;SDS011;9763;48.780;9.212;2023-04-25T07:57:48;1.70;;;1.60;;
19257;SDS011;9763;48.780;9.212;2023-04-25T08:01:12;1.87;;;1.60;;
19257;SDS011;9763;48.780;9.212;2023-04-25T08:04:47;2.57;;;1.83;;
19257;SDS011;9763;48.780;9.212;2023-04-25T08:08:12;2.67;;;2.47;;
19257;SDS011;9763;48.780;9.212;2023-04-25T08:11:37;2.37;;;2.17;;
19257;SDS011;9763;48.780;9.212;2023-04-25T08:15:05;2.07;;;1.87;;
19257;SDS011;9763;48.780;9.212;2023-04-25T08:18:33;2.40;;;2.07;;
19257;SDS011;9763;48.780;9.212;2023-04-25T08:21:59;2.20;;;2.00;;
19257;SDS011;9763;48.780;9.212;2023-04-25T08:25:31;2.47;;;2.20;;
19257;SDS011;9763;48.780;9.212;2023-04-25T08:28:55;1.97;;;1.80;;
19257;SDS011;9763;48.780;9.212;2023-04-25T08:32:21;1.77;;;1.67;;
19257;SDS011;9763;48.780;9.212;2023-04-25T08:36:02;3.23;;;1.93;;
19257;SDS011;9763;48.780;9.212;2023-04-25T08:39:27;2.70;;;1.87;;
19257;SDS011;9763;48.780;9.212;2023-04-25T08:43:12;1.93;;;1.73;;
19257;SDS011;9763;48.780;9.212;2023-04-25T08:46:37;2.30;;;2.03;;
19257;SDS011;9763;48.780;9.212;2023-04-25T08:50:12;2.00;;;1.83;;
19257;SDS011;9763;48.780;9.212;2023-04-25T08:53:37;2.00;;;1.90;;
19257;SDS011;9763;48.780;9.212;2023-04-25T08:57:04;2.23;;;1.77;;
19257;SDS011;9763;48.780;9.212;2023-04-25T09:00:29;2.77;;;2.00;;
19257;SDS011;9763;48.780;9.212;2023-04-25T09:03:53;2.10;;;1.70;;
19257;SDS011;9763;48.780;9.212;2023-04-25T09:07:19;2.07;;;1.87;;
19257;SDS011;9763;48.780;9.212;2023-04-25T09:10:44;3.67;;;1.90;;
19257;SDS011;9763;48.780;9.212;2023-04-25T09:14:12;1.47;;;1.30;;
19257;SDS011;9763;48.780;9.212;2023-04-25T09:18:05;1.97;;;1.77;;
19257;SDS011;9763;48.780;9.212;2023-04-25T09:21:35;2.03;;;1.67;;
19257;SDS011;9763;48.780;9.212;2023-04-25T09:25:00;2.20;;;2.00;;
19257;SDS011;9763;48.780;9.212;2023-04-25T09:28:26;2.90;;;2.13;;
19257;SDS011;9763;48.780;9.212;2023-04-25T09:31:54;2.53;;;1.80;;
19257;SDS011;9763;48.780;9.212;2023-04-25T09:35:40;2.23;;;1.80;;
19257;SDS011;9763;48.780;9.212;2023-04-25T09:39:12;2.90;;;2.00;;
19257;SDS011;9763;48.780;9.212;2023-04-25T09:42:45;2.50;;;2.30;;
19257;SDS011;9763;48.780;9.212;2023-04-25T09:46:10;1.80;;;1.70;;
19257;SDS011;9763;48.780;9.212;2023-04-25T09:49:40;2.13;;;1.93;;
19257;SDS011;9763;48.780;9.212;2023-04-25T09:53:06;3.07;;;2.10;;
19257;SDS011;9763;48.780;9.212;2023-04-25T09:56:48;2.00;;;1.80;;
19257;SDS011;9763;48.780;9.212;2023-04-25T10:00:16;1.83;;;1.70;;
19257;SDS011;9763;48.780;9.212;2023-04-25T10:03:42;1.57;;;1.40;;
19257;SDS011;9763;48.780;9.212;2023-04-25T10:07:31;1.60;;;1.50;;
19257;SDS011;9763;48.780;9.212;2023-04-25T10:10:56;1.57;;;1.40;;
19257;SDS011;9763;48.780;9.212;2023-04-25T10:14:22;1.67;;;1.30;;
19257;SDS011;9763;48.780;9.212;2023-04-25T10:17:48;1.60;;;1.20;;
19257;SDS011;9763;48.780;9.212;2023-04-25T10:21:13;1.20;;;1.00;;
19257;SDS011;9763;48.780;9.212;2023-04-25T10:24:39;1.40;;;0.90;;
19257;SDS011;9763;48.780;9.212;2023-04-25T10:28:04;1.30;;;1.10;;
19257;SDS011;9763;48.780;9.212;2023-04-25T10:31:29;1.20;;;1.10;;
19257;SDS011;9763;48.780;9.212;2023-04-25T10:34:54;1.43;;;1.17;;
19257;SDS011;9763;48.780;9.212;2023-04-25T10:38:18;1.67;;;1.50;;
19257;SDS011;9763;48.780;9.212;2023-04-25T10:41:46;2.03;;;1.20;;
19257;SDS011;9763;48.780;9.212;2023-04-25T10:45:16;1.73;;;1.30;;
19257;SDS011;9763;48.780;9.212;2023-04-25T10:48:43;1.70;;;1.50;;
19257;SDS011;9763;48.780;9.212;2023-04-25T10:52:16;2.13;;;1.40;;
19257;SDS011;9763;48.780;9.212;2023-04-25T10:55:49;1.57;;;1.47;;
19257;SDS011;9763;48.780;9.212;2023-04-25T10:59:14;2.10;;;1.67;;
19257;SDS011;9763;48.780;9.212;2023-04-25T11:02:43;2.27;;;2.07;;
19257;SDS011;9763;48.780;9.212;2023-04-25T11:06:11;2.70;;;2.50;;
19257;SDS011;9763;48.780;9.212;2023-04-25T11:09:46;2.20;;;2.00;;
19257;SDS011;9763;48.780;9.212;2023-04-25T11:13:10;2.60;;;1.87;;
19257;SDS011;9763;48.780;9.212;2023-04-25T11:16:33;2.30;;;1.73;;
19257;SDS011;9763;48.780;9.212;2023-04-25T11:19:58;1.60;;;1.43;;
19257;SDS011;9763;48.780;9.212;2023-04-25T11:23:22;1.70;;;1.60;;
19257;SDS011;9763;48.780;9.212;2023-04-25T11:26:47;1.70;;;1.60;;
19257;SDS011;9763;48.780;9.212;2023-04-25T11:30:12;1.97;;;1.70;;
19257;SDS011;9763;48.780;9.212;2023-04-25T11:33:38;2.33;;;1.30;;
19257;SDS011;9763;48.780;9.212;2023-04-25T11:37:02;2.00;;;1.47;;
19257;SDS011;9763;48.780;9.212;2023-04-25T11:40:27;1.50;;;1.30;;
19257;SDS011;9763;48.780;9.212;2023-04-25T11:43:54;1.77;;;1.67;;
19257;SDS011;9763;48.780;9.212;2023-04-25T11:47:18;1.97;;;1.77;;
19257;SDS011;9763;48.780;9.212;2023-04-25T11:50:43;2.03;;;1.83;;
19257;SDS011;9763;48.780;9.212;2023-04-25T11:54:07;1.90;;;1.70;;
19257;SDS011;9763;48.780;9.212;2023-04-25T11:57:31;1.70;;;1.40;;
19257;SDS011;9763;48.780;9.212;2023-04-25T12:00:56;1.97;;;1.83;;
19257;SDS011;9763;48.780;9.212;2023-04-25T12:04:22;2.80;;;2.60;;
19257;SDS011;9763;48.780;9.212;2023-04-25T12:07:47;2.60;;;2.40;;
19257;SDS011;9763;48.780;9.212;2023-04-25T12:11:20;2.80;;;2.60;;
19257;SDS011;9763;48.780;9.212;2023-04-25T12:14:46;2.30;;;2.03;;
19257;SDS011;9763;48.780;9.212;2023-04-25T12:18:12;2.80;;;2.60;;
19257;SDS011;9763;48.780;9.212;2023-04-25T12:21:36;3.27;;;2.97;;
19257;SDS011;9763;48.780;9.212;2023-04-25T12:28:57;2.90;;;2.40;;
19257;SDS011;9763;48.780;9.212;2023-04-25T12:32:22;3.60;;;2.60;;
19257;SDS011;9763;48.780;9.212;2023-04-25T12:35:48;2.37;;;2.17;;
19257;SDS011;9763;48.780;9.212;2023-04-25T12:39:15;2.97;;;2.67;;
19257;SDS011;9763;48.780;9.212;2023-04-25T12:42:39;3.23;;;2.60;;
19257;SDS011;9763;48.780;9.212;2023-04-25T12:46:03;2.70;;;2.33;;
19257;SDS011;9763;48.780;9.212;2023-04-25T12:49:27;3.13;;;2.50;;
19257;SDS011;9763;48.780;9.212;2023-04-25T12:52:52;2.40;;;2.20;;
19257;SDS011;9763;48.780;9.212;2023-04-25T12:56:16;2.30;;;2.10;;
19257;SDS011;9763;48.780;9.212;2023-04-25T12:59:44;3.27;;;2.10;;
19257;SDS011;9763;48.780;9.212;2023-04-25T13:03:07;2.83;;;2.40;;
19257;SDS011;9763;48.780;9.212;2023-04-25T13:06:32;1.80;;;1.70;;
19257;SDS011;9763;48.780;9.212;2023-04-25T13:09:58;2.63;;;2.43;;
19257;SDS011;9763;48.780;9.212;2023-04-25T13:13:22;2.37;;;2.17;;
19257;SDS011;9763;48.780;9.212;2023-04-25T13:16:46;2.00;;;1.90;;
19257;SDS011;9763;48.780;9.212;2023-04-25T13:20:10;3.57;;;3.10;;
19257;SDS011;9763;48.780;9.212;2023-04-25T13:23:36;3.30;;;3.00;;
19257;SDS011;9763;48.780;9.212;2023-04-25T13:27:01;4.13;;;2.63;;
19257;SDS011;9763;48.780;9.212;2023-04-25T13:30:26;3.00;;;2.80;;
19257;SDS011;9763;48.780;9.212;2023-04-25T13:33:50;2.43;;;2.23;;
19257;SDS011;9763;48.780;9.212;2023-04-25T13:37:14;3.50;;;3.20;;
19257;SDS011;9763;48.780;9.212;2023-04-25T13:40:38;3.50;;;3.20;;
19257;SDS011;9763;48.780;9.212;2023-04-25T13:44:03;4.00;;;3.70;;
19257;SDS011;9763;48.780;9.212;2023-04-25T13:47:27;3.60;;;3.17;;
19257;SDS011;9763;48.780;9.212;2023-04-25T13:50:51;4.50;;;4.10;;
19257;SDS011;9763;48.780;9.212;2023-04-25T13:54:15;4.57;;;4.07;;
19257;SDS011;9763;48.780;9.212;2023-04-25T13:57:39;4.07;;;3.77;;
19257;SDS011;9763;48.780;9.212;2023-04-25T14:01:04;4.50;;;4.20;;
19257;SDS011;9763;48.780;9.212;2023-04-25T14:04:28;6.50;;;5.90;;
19257;SDS011;9763;48.780;9.212;2023-04-25T14:07:52;5.53;;;5.03;;
19257;SDS011;9763;48.780;9.212;2023-04-25T14:11:16;5.77;;;5.27;;
19257;SDS011;9763;48.780;9.212;2023-04-25T14:14:40;5.07;;;4.60;;
19257;SDS011;9763;48.780;9.212;2023-04-25T14:18:06;5.47;;;4.97;;
19257;SDS011;9763;48.780;9.212;2023-04-25T14:21:30;6.30;;;5.17;;
19257;SDS011;9763;48.780;9.212;2023-04-25T14:24:54;5.37;;;4.83;;
19257;SDS011;9763;48.780;9.212;2023-04-25T14:28:19;5.07;;;4.57;;
19257;SDS011;9763;48.780;9.212;2023-04-25T14:31:44;4.23;;;3.93;;
19257;SDS011;9763;48.780;9.212;2023-04-25T14:35:09;4.20;;;3.80;;
19257;SDS011;9763;48.780;9.212;2023-04-25T14:38:33;3.83;;;3.43;;
19257;SDS011;9763;48.780;9.212;2023-04-25T14:41:57;4.13;;;3.83;;
19257;SDS011;9763;48.780;9.212;2023-04-25T14:45:21;3.07;;;2.80;;
19257;SDS011;9763;48.780;9.212;2023-04-25T14:48:45;5.67;;;3.70;;
19257;SDS011;9763;48.780;9.212;2023-04-25T14:52:11;3.63;;;3.33;;
19257;SDS011;9763;48.780;9.212;2023-04-25T14:55:34;3.17;;;2.90;;
19257;SDS011;9763;48.780;9.212;2023-04-25T14:58:58;3.30;;;2.80;;
19257;SDS011;9763;48.780;9.212;2023-04-25T15:02:23;3.50;;;3.20;;
19257;SDS011;9763;48.780;9.212;2023-04-25T15:05:47;3.17;;;2.87;;
19257;SDS011;9763;48.780;9.212;2023-04-25T15:09:13;3.50;;;3.20;;
19257;SDS011;9763;48.780;9.212;2023-04-25T15:12:37;4.70;;;3.43;;
19257;SDS011;9763;48.780;9.212;2023-04-25T15:16:02;3.90;;;3.60;;
19257;SDS011;9763;48.780;9.212;2023-04-25T15:19:26;3.40;;;2.93;;
19257;SDS011;9763;48.780;9.212;2023-04-25T15:22:50;3.47;;;3.20;;
19257;SDS011;9763;48.780;9.212;2023-04-25T15:26:15;6.57;;;3.57;;
19257;SDS011;9763;48.780;9.212;2023-04-25T15:29:39;3.43;;;2.80;;
19257;SDS011;9763;48.780;9.212;2023-04-25T15:33:03;3.10;;;2.80;;
19257;SDS011;9763;48.780;9.212;2023-04-25T15:36:27;2.80;;;2.60;;
19257;SDS011;9763;48.780;9.212;2023-04-25T15:39:52;4.57;;;3.80;;
19257;SDS011;9763;48.780;9.212;2023-04-25T15:43:26;4.03;;;3.70;;
19257;SDS011;9763;48.780;9.212;2023-04-25T15:46:50;3.50;;;3.20;;
19257;SDS011;9763;48.780;9.212;2023-04-25T15:50:16;3.13;;;2.83;;
19257;SDS011;9763;48.780;9.212;2023-04-25T15:53:40;4.23;;;3.83;;
19257;SDS011;9763;48.780;9.212;2023-04-25T15:57:04;3.03;;;2.67;;
19257;SDS011;9763;48.780;9.212;2023-04-25T16:00:30;4.73;;;3.77;;
19257;SDS011;9763;48.780;9.212;2023-04-25T16:03:56;4.57;;;3.73;;
19257;SDS011;9763;48.780;9.212;2023-04-25T16:07:21;4.53;;;4.23;;
19257;SDS011;9763;48.780;9.212;2023-04-25T16:10:44;4.00;;;3.70;;
19257;SDS011;9763;48.780;9.212;2023-04-25T16:14:09;4.00;;;3.70;;
19257;SDS011;9763;48.780;9.212;2023-04-25T16:17:34;5.70;;;3.50;;
19257;SDS011;9763;48.780;9.212;2023-04-25T16:20:58;3.30;;;3.07;;
19257;SDS011;9763;48.780;9.212;2023-04-25T16:24:22;3.30;;;3.00;;
19257;SDS011;9763;48.780;9.212;2023-04-25T16:27:45;3.20;;;2.90;;
19257;SDS011;9763;48.780;9.212;2023-04-25T16:31:09;4.30;;;3.93;;
19257;SDS011;9763;48.780;9.212;2023-04-25T16:34:35;5.07;;;3.67;;
19257;SDS011;9763;48.780;9.212;2023-04-25T16:37:59;3.00;;;2.80;;
19257;SDS011;9763;48.780;9.212;2023-04-25T16:41:23;4.10;;;3.70;;
19257;SDS011;9763;48.780;9.212;2023-04-25T16:44:47;4.70;;;4.30;;
19257;SDS011;9763;48.780;9.212;2023-04-25T16:48:11;4.17;;;3.87;;
19257;SDS011;9763;48.780;9.212;2023-04-25T16:51:37;3.93;;;3.53;;
19257;SDS011;9763;48.780;9.212;2023-04-25T16:55:01;6.13;;;3.30;;
19257;SDS011;9763;48.780;9.212;2023-04-25T16:58:26;4.00;;;2.80;;
19257;SDS011;9763;48.780;9.212;2023-04-25T17:01:49;3.70;;;3.40;;
19257;SDS011;9763;48.780;9.212;2023-04-25T17:05:13;3.23;;;2.93;;
19257;SDS011;9763;48.780;9.212;2023-04-25T17:08:39;3.87;;;3.47;;
19257;SDS011;9763;48.780;9.212;2023-04-25T17:12:03;4.63;;;3.30;;
19257;SDS011;9763;48.780;9.212;2023-04-25T17:15:27;4.03;;;3.30;;
19257;SDS011;9763;48.780;9.212;2023-04-25T17:18:51;3.77;;;3.47;;
19257;SDS011;9763;48.780;9.212;2023-04-25T17:22:15;4.53;;;4.10;;
19257;SDS011;9763;48.780;9.212;2023-04-25T17:25:41;4.33;;;3.80;;
19257;SDS011;9763;48.780;9.212;2023-04-25T17:29:04;3.90;;;3.50;;
19257;SDS011;9763;48.780;9.212;2023-04-25T17:32:28;4.27;;;3.87;;
19257;SDS011;9763;48.780;9.212;2023-04-25T17:35:52;7.00;;;4.10;;
19257;SDS011;9763;48.780;9.212;2023-04-25T17:39:17;4.80;;;3.97;;
19257;SDS011;9763;48.780;9.212;2023-04-25T17:42:42;5.40;;;4.23;;
19257;SDS011;9763;48.780;9.212;2023-04-25T17:46:06;4.37;;;3.97;;
19257;SDS011;9763;48.780;9.212;2023-04-25T17:49:30;4.10;;;3.73;;
19257;SDS011;9763;48.780;9.212;2023-04-25T17:52:55;5.13;;;4.63;;
19257;SDS011;9763;48.780;9.212;2023-04-25T17:56:19;5.13;;;4.63;;
19257;SDS011;9763;48.780;9.212;2023-04-25T17:59:49;7.33;;;4.20;;
19257;SDS011;9763;48.780;9.212;2023-04-25T18:03:14;4.90;;;4.13;;
19257;SDS011;9763;48.780;9.212;2023-04-25T18:06:38;7.23;;;3.87;;
19257;SDS011;9763;48.780;9.212;2023-04-25T18:10:03;4.27;;;3.73;;
19257;SDS011;9763;48.780;9.212;2023-04-25T18:13:28;4.43;;;3.80;;
19257;SDS011;9763;48.780;9.212;2023-04-25T18:16:53;4.10;;;3.70;;
19257;SDS011;9763;48.780;9.212;2023-04-25T18:20:17;4.27;;;3.97;;
19257;SDS011;9763;48.780;9.212;2023-04-25T18:23:42;3.50;;;3.23;;
19257;SDS011;9763;48.780;9.212;2023-04-25T18:27:06;3.63;;;2.97;;
19257;SDS011;9763;48.780;9.212;2023-04-25T18:30:31;3.53;;;3.20;;
19257;SDS011;9763;48.780;9.212;2023-04-25T18:33:56;3.33;;;3.03;;
19257;SDS011;9763;48.780;9.212;2023-04-25T18:37:20;4.20;;;3.23;;
19257;SDS011;9763;48.780;9.212;2023-04-25T18:40:44;4.17;;;3.77;;
19257;SDS011;9763;48.780;9.212;2023-04-25T18:44:23;4.20;;;3.90;;
19257;SDS011;9763;48.780;9.212;2023-04-25T18:47:48;3.73;;;3.43;;
19257;SDS011;9763;48.780;9.212;2023-04-25T18:51:13;3.50;;;3.20;;
19257;SDS011;9763;48.780;9.212;2023-04-25T18:54:38;3.20;;;2.90;;
19257;SDS011;9763;48.780;9.212;2023-04-25T18:58:02;4.60;;;3.00;;
19257;SDS011;9763;48.780;9.212;2023-04-25T19:01:29;3.03;;;2.80;;
19257;SDS011;9763;48.780;9.212;2023-04-25T19:04:53;3.23;;;2.90;;
19257;SDS011;9763;48.780;9.212;2023-04-25T19:08:18;3.57;;;3.27;;
19257;SDS011;9763;48.780;9.212;2023-04-25T19:11:44;3.87;;;3.30;;
19257;SDS011;9763;48.780;9.212;2023-04-25T19:15:08;4.50;;;4.10;;
19257;SDS011;9763;48.780;9.212;2023-04-25T19:18:33;3.90;;;3.60;;
19257;SDS011;9763;48.780;9.212;2023-04-25T19:21:57;4.20;;;3.80;;
19257;SDS011;9763;48.780;9.212;2023-04-25T19:25:22;3.80;;;3.17;;
19257;SDS011;9763;48.780;9.212;2023-04-25T19:28:46;5.30;;;3.90;;
19257;SDS011;9763;48.780;9.212;2023-04-25T19:32:26;4.00;;;3.67;;
19257;SDS011;9763;48.780;9.212;2023-04-25T19:35:50;3.57;;;3.23;;
19257;SDS011;9763;48.780;9.212;2023-04-25T19:39:14;3.43;;;3.20;;
19257;SDS011;9763;48.780;9.212;2023-04-25T19:42:39;3.60;;;3.30;;
19257;SDS011;9763;48.780;9.212;2023-04-25T19:46:03;2.90;;;2.70;;
19257;SDS011;9763;48.780;9.212;2023-04-25T19:49:27;3.23;;;2.90;;
19257;SDS011;9763;48.780;9.212;2023-04-25T19:52:51;7.10;;;3.53;;
19257;SDS011;9763;48.780;9.212;2023-04-25T19:56:15;4.97;;;3.90;;
19257;SDS011;9763;48.780;9.212;2023-04-25T19:59:41;4.23;;;3.83;;
19257;SDS011;9763;48.780;9.212;2023-04-25T20:03:08;3.83;;;3.53;;
19257;SDS011;9763;48.780;9.212;2023-04-25T20:06:33;4.10;;;3.80;;
19257;SDS011;9763;48.780;9.212;2023-04-25T20:09:57;4.53;;;4.13;;
19257;SDS011;9763;48.780;9.212;2023-04-25T20:13:22;5.30;;;3.27;;
19257;SDS011;9763;48.780;9.212;2023-04-25T20:16:47;4.10;;;3.70;;
19257;SDS011;9763;48.780;9.212;2023-04-25T20:20:12;4.00;;;3.60;;
19257;SDS011;9763;48.780;9.212;2023-04-25T20:23:37;7.43;;;4.60;;
19257;SDS011;9763;48.780;9.212;2023-04-25T20:27:01;5.40;;;4.87;;
19257;SDS011;9763;48.780;9.212;2023-04-25T20:30:25;6.03;;;4.40;;
19257;SDS011;9763;48.780;9.212;2023-04-25T20:33:50;8.77;;;3.70;;
19257;SDS011;9763;48.780;9.212;2023-04-25T20:37:14;4.57;;;4.17;;
19257;SDS011;9763;48.780;9.212;2023-04-25T20:40:38;3.80;;;3.47;;
19257;SDS011;9763;48.780;9.212;2023-04-25T20:44:01;8.97;;;8.00;;
19257;SDS011;9763;48.780;9.212;2023-04-25T20:47:25;8.13;;;5.43;;
19257;SDS011;9763;48.780;9.212;2023-04-25T20:50:51;5.97;;;4.23;;
19257;SDS011;9763;48.780;9.212;2023-04-25T20:54:15;3.63;;;3.33;;
19257;SDS011;9763;48.780;9.212;2023-04-25T20:57:39;4.90;;;4.17;;
19257;SDS011;9763;48.780;9.212;2023-04-25T21:01:03;4.30;;;3.70;;
19257;SDS011;9763;48.780;9.212;2023-04-25T21:04:28;3.70;;;3.40;;
19257;SDS011;9763;48.780;9.212;2023-04-25T21:07:54;5.00;;;3.47;;